»·PEaware :: N208NM KTNP-KBLH

N208NM :: KTNP-KBLH

FLIGHT INFORMATION

Flight Status: Arrived
Operator: Privately registered:
United States
More flights under this callsign
Pilot: Neil M. (13104)
Aircraft: CESSNA 208 CARAVAN
(C208)
More flights by this aircraft type
Origin: KTNP Twentynine Palms
United States
Destination: KBLH Blythe
United States
More flights between these airports :: More routes between these airports
Route:
File this flight plan on PilotEdge
Remarks: VFR
Altitude:
(Current/Filed)
5,500ft
Speed:
(Current/Filed)
100kts
Departed: 22-Oct-17 02:04 PM
Arrived: 22-Oct-17 02:35 PM
Distance/Time
Traveled:
69nm/0:31
Distance/Time
To Go:
Arrived

Flight Plot

Page will automatically refresh every two minutes.

Flight plan parsing failed; only flown route is shown


Map Options




Map Legend


Flown Route
Filed Route
Departure Airport
Arrival Airport
Navaid (VOR, NDB)
Fix

Horizontal Profiles

Position Reports

Time Latitude Longitude Heading Altitude Ground
Speed
22-Oct-17 13:59 34.136224 -115.942712 179 1892ft 0kts
22-Oct-17 14:00 34.136224 -115.942712 179 1892ft 0kts
22-Oct-17 14:01 34.136224 -115.942712 179 1892ft 0kts
22-Oct-17 14:02 34.136224 -115.942712 179 1892ft 0kts
22-Oct-17 14:03 34.136202 -115.942708 166 1892ft 1kts
22-Oct-17 14:04 34.135231 -115.942019 269 1892ft 10kts
22-Oct-17 14:05 34.135229 -115.946441 268 1892ft 15kts
22-Oct-17 14:06 34.135197 -115.951820 269 1892ft 16kts
22-Oct-17 14:07 34.134836 -115.953399 181 1892ft 3kts
22-Oct-17 14:08 34.134408 -115.952559 78 1892ft 24kts
22-Oct-17 14:09 34.135207 -115.913060 88 2335ft 145kts
22-Oct-17 14:10 34.131328 -115.864046 100 3091ft 157kts
22-Oct-17 14:11 34.121261 -115.820552 110 4105ft 136kts
22-Oct-17 14:12 34.106684 -115.784683 121 5156ft 125kts
22-Oct-17 14:13 34.086994 -115.751401 108 6289ft 120kts
22-Oct-17 14:14 34.074133 -115.707415 114 6512ft 159kts
22-Oct-17 14:15 34.054853 -115.661791 118 6994ft 149kts
22-Oct-17 14:16 34.036217 -115.620576 118 7472ft 147kts
22-Oct-17 14:17 34.015174 -115.574678 118 7502ft 161kts
22-Oct-17 14:18 33.993635 -115.527839 118 7494ft 155kts
22-Oct-17 14:19 33.972983 -115.482905 118 7497ft 152kts
22-Oct-17 14:20 33.952399 -115.438130 118 7498ft 152kts
22-Oct-17 14:21 33.931863 -115.393463 118 7498ft 152kts
22-Oct-17 14:22 33.911470 -115.349119 118 7498ft 152kts
22-Oct-17 14:23 33.891421 -115.305860 117 7498ft 153kts
22-Oct-17 14:24 33.870879 -115.260945 117 7498ft 153kts
22-Oct-17 14:25 33.850100 -115.216321 118 7507ft 153kts
22-Oct-17 14:26 33.828907 -115.170994 117 7356ft 163kts
22-Oct-17 14:27 33.805880 -115.120865 118 6782ft 176kts
22-Oct-17 14:28 33.782235 -115.069645 118 6367ft 169kts
22-Oct-17 14:29 33.760182 -115.021735 118 6371ft 161kts
22-Oct-17 14:30 33.736522 -114.976651 116 6372ft 159kts
22-Oct-17 14:31 33.716740 -114.928940 116 6372ft 159kts
22-Oct-17 14:32 33.692069 -114.884852 120 6372ft 159kts
22-Oct-17 14:33 33.663761 -114.842671 150 5872ft 173kts
22-Oct-17 14:34 33.623430 -114.815765 151 5077ft 160kts
22-Oct-17 14:35 33.583489 -114.789429 151 3694ft 168kts
22-Oct-17 14:36 33.552332 -114.751728 118 2272ft 151kts
22-Oct-17 14:37 33.563668 -114.717637 21 1520ft 79kts
22-Oct-17 14:38 33.583709 -114.716369 358 1097ft 74kts
22-Oct-17 14:39 33.603140 -114.717001 358 792ft 72kts
22-Oct-17 14:40 33.620533 -114.716960 359 398ft 22kts
22-Oct-17 14:41 33.619599 -114.716801 183 398ft 5kts
22-Oct-17 14:42 33.616267 -114.715216 181 398ft 23kts
22-Oct-17 14:43 33.614540 -114.714404 115 398ft 4kts
22-Oct-17 14:44 33.614089 -114.714136 273 398ft 0kts
22-Oct-17 14:45 33.614089 -114.714136 273 398ft 0kts
22-Oct-17 14:46 33.614089 -114.714136 273 398ft 0kts
22-Oct-17 14:47 33.614089 -114.714136 273 398ft 0kts
22-Oct-17 14:48 33.614089 -114.714136 273 398ft 0kts
22-Oct-17 14:49 33.614089 -114.714136 273 398ft 0kts
22-Oct-17 14:50 33.614089 -114.714136 273 398ft 0kts
22-Oct-17 14:51 33.614089 -114.714136 273 398ft 0kts
22-Oct-17 14:52 33.614089 -114.714136 273 398ft 0kts
22-Oct-17 14:53 33.614089 -114.714136 273 398ft 0kts
22-Oct-17 14:54 33.614089 -114.714136 273 398ft 0kts

Navigation Log

Ident Type
Flight plan parsing failed, navigation log unavailable